Карточка аэропорта UHWW

Внимание!
Информация на этой странице в стадии наполнения.
Если вы не увидели какой-то информации, или заметили неточность - пожалуйста сообщите нам!
Спасибо!
Команда RU-STAFF
Название аэропортаКневичи
Название аэропорта (англ.)Knevichi
Превышение59 ft. (18 m.)
Координаты43°23.886', 132°8.9400000000001'
Высота перехода7000ft
Эшелон переходаQNH>=1013hPa: FL80; 1013hPa>QNH>=977hPa: FL90; QNH<977hPa: FL100
Коды ответчика5050-5077
Зона ОрВДХабаровск РПИ (UHHH)
Данные METARUHWW 200630Z 24005MPS 9999 FEW050CB 30/23 Q1003 R25L/0///70 NOSIG RMK QFE751
Проноз погоды (TAF)UHWW 200500Z 2006/2106 22003G08MPS 9999 NSC TEMPO 2006/2010 -TSRA SCT025CB BECMG 2010/2012 10003MPS SCT020 TEMPO 2012/2106 16003G08MPS 6000 -TSRA BKN017CB
NOTAMshow/hide NOTAM
AWOS   TABLE

Информация о ВПП

ВПП Длина ВПП (м.) Покрытие Курс ВПП Частота ILS
07R3500Бетон71109.3
25L3500Бетон251110.1

Диспетчерские позиции

Позывной Наименование органа УВД Частота
UHWW_R_APPВладивосток-Круг123.4
UHWW_APPВладивосток-Подход124.7
UHWW_GNDВладивосток-Руление121.7
UHWW_TWRВладивосток-Старт119.5
UHWW-FM1Машина сопровождения121.700



Спутниковое изображение